sensor_id;sensor_type;location;lat;lon;timestamp;temperature;humidity
7192;DHT22;3637;51.494;11.958;2022-09-09T00:02:55;16.70;99.90
7192;DHT22;3637;51.494;11.958;2022-09-09T00:06:04;16.70;99.90
7192;DHT22;3637;51.494;11.958;2022-09-09T00:09:12;16.70;99.90
7192;DHT22;3637;51.494;11.958;2022-09-09T00:12:22;16.70;99.90
7192;DHT22;3637;51.494;11.958;2022-09-09T00:15:30;16.70;99.90
7192;DHT22;3637;51.494;11.958;2022-09-09T00:18:52;16.70;99.90
7192;DHT22;3637;51.494;11.958;2022-09-09T00:22:10;16.70;99.90
7192;DHT22;3637;51.494;11.958;2022-09-09T00:25:22;16.70;99.90
7192;DHT22;3637;51.494;11.958;2022-09-09T00:28:26;16.70;99.90
7192;DHT22;3637;51.494;11.958;2022-09-09T00:31:31;16.70;99.90
7192;DHT22;3637;51.494;11.958;2022-09-09T00:34:33;16.60;99.90
7192;DHT22;3637;51.494;11.958;2022-09-09T00:37:36;16.60;99.90
7192;DHT22;3637;51.494;11.958;2022-09-09T00:40:48;16.60;99.90
7192;DHT22;3637;51.494;11.958;2022-09-09T00:43:57;16.60;99.90
7192;DHT22;3637;51.494;11.958;2022-09-09T00:47:09;16.60;99.90
7192;DHT22;3637;51.494;11.958;2022-09-09T00:50:31;16.60;99.90
7192;DHT22;3637;51.494;11.958;2022-09-09T00:53:42;16.60;99.90
7192;DHT22;3637;51.494;11.958;2022-09-09T00:56:49;16.50;99.90
7192;DHT22;3637;51.494;11.958;2022-09-09T01:00:17;16.50;99.90
7192;DHT22;3637;51.494;11.958;2022-09-09T01:03:25;16.50;99.90
7192;DHT22;3637;51.494;11.958;2022-09-09T01:06:34;16.50;99.90
7192;DHT22;3637;51.494;11.958;2022-09-09T01:09:51;16.50;99.90
7192;DHT22;3637;51.494;11.958;2022-09-09T01:12:56;16.40;99.90
7192;DHT22;3637;51.494;11.958;2022-09-09T01:16:01;16.40;99.90
7192;DHT22;3637;51.494;11.958;2022-09-09T01:19:07;16.40;99.90
7192;DHT22;3637;51.494;11.958;2022-09-09T01:22:22;16.40;99.90
7192;DHT22;3637;51.494;11.958;2022-09-09T01:25:56;16.30;99.90
7192;DHT22;3637;51.494;11.958;2022-09-09T01:29:11;16.30;99.90
7192;DHT22;3637;51.494;11.958;2022-09-09T01:32:39;16.30;99.90
7192;DHT22;3637;51.494;11.958;2022-09-09T01:35:46;16.30;99.90
7192;DHT22;3637;51.494;11.958;2022-09-09T01:38:51;16.30;99.90
7192;DHT22;3637;51.494;11.958;2022-09-09T01:41:56;16.30;99.90
7192;DHT22;3637;51.494;11.958;2022-09-09T01:44:58;16.30;99.90
7192;DHT22;3637;51.494;11.958;2022-09-09T01:48:01;16.30;99.90
7192;DHT22;3637;51.494;11.958;2022-09-09T01:51:03;16.30;99.90
7192;DHT22;3637;51.494;11.958;2022-09-09T01:54:06;16.30;99.90
7192;DHT22;3637;51.494;11.958;2022-09-09T01:57:15;16.30;99.90
7192;DHT22;3637;51.494;11.958;2022-09-09T02:00:19;16.30;99.90
7192;DHT22;3637;51.494;11.958;2022-09-09T02:03:25;16.30;99.90
7192;DHT22;3637;51.494;11.958;2022-09-09T02:06:32;16.30;99.90
7192;DHT22;3637;51.494;11.958;2022-09-09T02:09:36;16.30;99.90
7192;DHT22;3637;51.494;11.958;2022-09-09T02:12:45;16.20;99.90
7192;DHT22;3637;51.494;11.958;2022-09-09T02:15:53;16.30;99.90
7192;DHT22;3637;51.494;11.958;2022-09-09T02:19:02;16.30;99.90
7192;DHT22;3637;51.494;11.958;2022-09-09T02:22:06;16.30;99.90
7192;DHT22;3637;51.494;11.958;2022-09-09T02:25:11;16.30;99.90
7192;DHT22;3637;51.494;11.958;2022-09-09T02:28:17;16.30;99.90
7192;DHT22;3637;51.494;11.958;2022-09-09T02:31:23;16.30;99.90
7192;DHT22;3637;51.494;11.958;2022-09-09T02:34:27;16.30;99.90
7192;DHT22;3637;51.494;11.958;2022-09-09T02:37:34;16.30;99.90
7192;DHT22;3637;51.494;11.958;2022-09-09T02:40:38;16.40;99.90
7192;DHT22;3637;51.494;11.958;2022-09-09T02:43:41;16.30;99.70
7192;DHT22;3637;51.494;11.958;2022-09-09T02:47:00;16.30;99.80
7192;DHT22;3637;51.494;11.958;2022-09-09T02:50:11;16.30;99.70
7192;DHT22;3637;51.494;11.958;2022-09-09T02:53:17;16.40;99.80
7192;DHT22;3637;51.494;11.958;2022-09-09T02:56:23;16.40;99.90
7192;DHT22;3637;51.494;11.958;2022-09-09T02:59:30;16.40;99.80
7192;DHT22;3637;51.494;11.958;2022-09-09T03:02:33;16.30;99.70
7192;DHT22;3637;51.494;11.958;2022-09-09T03:05:35;16.30;99.70
7192;DHT22;3637;51.494;11.958;2022-09-09T03:08:38;16.30;99.90
7192;DHT22;3637;51.494;11.958;2022-09-09T03:11:40;16.30;99.90
7192;DHT22;3637;51.494;11.958;2022-09-09T03:14:43;16.30;99.90
7192;DHT22;3637;51.494;11.958;2022-09-09T03:17:46;16.30;99.90
7192;DHT22;3637;51.494;11.958;2022-09-09T03:20:48;16.30;99.90
7192;DHT22;3637;51.494;11.958;2022-09-09T03:23:51;16.30;99.90
7192;DHT22;3637;51.494;11.958;2022-09-09T03:26:53;16.30;99.90
7192;DHT22;3637;51.494;11.958;2022-09-09T03:29:57;16.30;99.90
7192;DHT22;3637;51.494;11.958;2022-09-09T03:32:59;16.30;99.90
7192;DHT22;3637;51.494;11.958;2022-09-09T03:36:02;16.20;99.90
7192;DHT22;3637;51.494;11.958;2022-09-09T03:39:03;16.20;99.90
7192;DHT22;3637;51.494;11.958;2022-09-09T03:42:06;16.20;99.90
7192;DHT22;3637;51.494;11.958;2022-09-09T03:45:10;16.10;99.90
7192;DHT22;3637;51.494;11.958;2022-09-09T03:48:12;16.10;99.90
7192;DHT22;3637;51.494;11.958;2022-09-09T03:51:14;16.20;99.90
7192;DHT22;3637;51.494;11.958;2022-09-09T03:54:16;16.10;99.90
7192;DHT22;3637;51.494;11.958;2022-09-09T03:57:18;16.10;99.90
7192;DHT22;3637;51.494;11.958;2022-09-09T04:00:21;16.10;99.90
7192;DHT22;3637;51.494;11.958;2022-09-09T04:03:24;16.10;99.90
7192;DHT22;3637;51.494;11.958;2022-09-09T04:06:26;16.10;99.90
7192;DHT22;3637;51.494;11.958;2022-09-09T04:09:28;16.10;99.90
7192;DHT22;3637;51.494;11.958;2022-09-09T04:12:30;16.10;99.90
7192;DHT22;3637;51.494;11.958;2022-09-09T04:15:33;16.20;99.90
7192;DHT22;3637;51.494;11.958;2022-09-09T04:18:36;16.20;99.90
7192;DHT22;3637;51.494;11.958;2022-09-09T04:21:38;16.20;99.90
7192;DHT22;3637;51.494;11.958;2022-09-09T04:24:41;16.20;99.90
7192;DHT22;3637;51.494;11.958;2022-09-09T04:27:43;16.20;99.90
7192;DHT22;3637;51.494;11.958;2022-09-09T04:30:47;16.20;99.90
7192;DHT22;3637;51.494;11.958;2022-09-09T04:33:50;16.30;99.90
7192;DHT22;3637;51.494;11.958;2022-09-09T04:36:52;16.30;99.90
7192;DHT22;3637;51.494;11.958;2022-09-09T04:39:54;16.20;99.90
7192;DHT22;3637;51.494;11.958;2022-09-09T04:42:57;16.20;99.90
7192;DHT22;3637;51.494;11.958;2022-09-09T04:46:01;16.40;99.90
7192;DHT22;3637;51.494;11.958;2022-09-09T04:49:03;16.40;99.90
7192;DHT22;3637;51.494;11.958;2022-09-09T04:52:05;16.30;99.90
7192;DHT22;3637;51.494;11.958;2022-09-09T04:55:08;16.30;99.90
7192;DHT22;3637;51.494;11.958;2022-09-09T04:58:10;16.40;99.90
7192;DHT22;3637;51.494;11.958;2022-09-09T05:01:15;16.40;99.90
7192;DHT22;3637;51.494;11.958;2022-09-09T05:04:17;16.40;99.90
7192;DHT22;3637;51.494;11.958;2022-09-09T05:07:21;16.50;99.90
7192;DHT22;3637;51.494;11.958;2022-09-09T05:10:22;16.50;99.90
7192;DHT22;3637;51.494;11.958;2022-09-09T05:13:25;16.50;99.90
7192;DHT22;3637;51.494;11.958;2022-09-09T05:16:28;16.50;99.90
7192;DHT22;3637;51.494;11.958;2022-09-09T05:19:30;16.50;99.90
7192;DHT22;3637;51.494;11.958;2022-09-09T05:22:32;16.50;99.90
7192;DHT22;3637;51.494;11.958;2022-09-09T05:25:34;16.50;99.90
7192;DHT22;3637;51.494;11.958;2022-09-09T05:28:37;16.50;99.90
7192;DHT22;3637;51.494;11.958;2022-09-09T05:31:41;16.50;99.90
7192;DHT22;3637;51.494;11.958;2022-09-09T05:34:45;16.60;99.90
7192;DHT22;3637;51.494;11.958;2022-09-09T05:37:47;16.60;99.90
7192;DHT22;3637;51.494;11.958;2022-09-09T05:40:49;16.60;99.90
7192;DHT22;3637;51.494;11.958;2022-09-09T05:43:52;16.70;99.90
7192;DHT22;3637;51.494;11.958;2022-09-09T05:46:55;16.60;99.90
7192;DHT22;3637;51.494;11.958;2022-09-09T05:49:58;16.60;99.90
7192;DHT22;3637;51.494;11.958;2022-09-09T05:53:00;16.60;99.90
7192;DHT22;3637;51.494;11.958;2022-09-09T05:56:03;16.80;99.90
7192;DHT22;3637;51.494;11.958;2022-09-09T05:59:05;16.80;99.80
7192;DHT22;3637;51.494;11.958;2022-09-09T06:02:09;16.90;99.40
7192;DHT22;3637;51.494;11.958;2022-09-09T06:05:11;16.90;99.20
7192;DHT22;3637;51.494;11.958;2022-09-09T06:08:13;16.90;99.30
7192;DHT22;3637;51.494;11.958;2022-09-09T06:11:17;16.90;99.40
7192;DHT22;3637;51.494;11.958;2022-09-09T06:14:19;17.00;99.60
7192;DHT22;3637;51.494;11.958;2022-09-09T06:17:23;17.00;99.80
7192;DHT22;3637;51.494;11.958;2022-09-09T06:20:25;16.90;99.80
7192;DHT22;3637;51.494;11.958;2022-09-09T06:23:28;16.90;99.90
7192;DHT22;3637;51.494;11.958;2022-09-09T06:26:31;16.90;99.70
7192;DHT22;3637;51.494;11.958;2022-09-09T06:29:33;16.90;99.70
7192;DHT22;3637;51.494;11.958;2022-09-09T06:32:36;16.90;99.70
7192;DHT22;3637;51.494;11.958;2022-09-09T06:35:38;17.00;99.70
7192;DHT22;3637;51.494;11.958;2022-09-09T06:38:40;17.00;99.50
7192;DHT22;3637;51.494;11.958;2022-09-09T06:41:42;17.10;99.30
7192;DHT22;3637;51.494;11.958;2022-09-09T06:44:44;17.10;99.20
7192;DHT22;3637;51.494;11.958;2022-09-09T06:47:48;17.20;99.00
7192;DHT22;3637;51.494;11.958;2022-09-09T06:50:50;17.20;98.60
7192;DHT22;3637;51.494;11.958;2022-09-09T06:53:53;17.30;98.60
7192;DHT22;3637;51.494;11.958;2022-09-09T06:56:55;17.30;98.20
7192;DHT22;3637;51.494;11.958;2022-09-09T06:59:57;17.50;97.90
7192;DHT22;3637;51.494;11.958;2022-09-09T07:03:00;17.60;97.90
7192;DHT22;3637;51.494;11.958;2022-09-09T07:06:02;17.60;97.90
7192;DHT22;3637;51.494;11.958;2022-09-09T07:09:06;17.70;97.30
7192;DHT22;3637;51.494;11.958;2022-09-09T07:12:08;17.80;96.90
7192;DHT22;3637;51.494;11.958;2022-09-09T07:15:10;17.90;96.90
7192;DHT22;3637;51.494;11.958;2022-09-09T07:18:14;18.00;96.80
7192;DHT22;3637;51.494;11.958;2022-09-09T07:21:17;18.00;96.60
7192;DHT22;3637;51.494;11.958;2022-09-09T07:24:19;18.00;95.90
7192;DHT22;3637;51.494;11.958;2022-09-09T07:27:21;18.00;96.30
7192;DHT22;3637;51.494;11.958;2022-09-09T07:30:23;18.10;96.20
7192;DHT22;3637;51.494;11.958;2022-09-09T07:33:26;18.10;96.20
7192;DHT22;3637;51.494;11.958;2022-09-09T07:36:32;18.30;96.10
7192;DHT22;3637;51.494;11.958;2022-09-09T07:39:34;18.20;96.10
7192;DHT22;3637;51.494;11.958;2022-09-09T07:42:36;18.30;96.10
7192;DHT22;3637;51.494;11.958;2022-09-09T07:45:38;18.40;95.40
7192;DHT22;3637;51.494;11.958;2022-09-09T07:48:45;18.50;95.20
7192;DHT22;3637;51.494;11.958;2022-09-09T07:51:47;18.60;95.50
7192;DHT22;3637;51.494;11.958;2022-09-09T07:54:49;18.60;95.90
7192;DHT22;3637;51.494;11.958;2022-09-09T07:57:53;18.70;95.80
7192;DHT22;3637;51.494;11.958;2022-09-09T08:00:55;18.80;95.10
7192;DHT22;3637;51.494;11.958;2022-09-09T08:04:01;18.80;95.30
7192;DHT22;3637;51.494;11.958;2022-09-09T08:07:04;18.80;95.50
7192;DHT22;3637;51.494;11.958;2022-09-09T08:10:06;18.90;95.00
7192;DHT22;3637;51.494;11.958;2022-09-09T08:13:08;19.00;94.90
7192;DHT22;3637;51.494;11.958;2022-09-09T08:16:13;19.00;94.60
7192;DHT22;3637;51.494;11.958;2022-09-09T08:19:17;19.10;94.60
7192;DHT22;3637;51.494;11.958;2022-09-09T08:22:19;19.10;94.80
7192;DHT22;3637;51.494;11.958;2022-09-09T08:25:20;19.10;94.80
7192;DHT22;3637;51.494;11.958;2022-09-09T08:28:22;19.20;94.60
7192;DHT22;3637;51.494;11.958;2022-09-09T08:31:26;19.30;94.10
7192;DHT22;3637;51.494;11.958;2022-09-09T08:34:30;19.40;94.20
7192;DHT22;3637;51.494;11.958;2022-09-09T08:37:32;19.40;93.80
7192;DHT22;3637;51.494;11.958;2022-09-09T08:40:38;19.40;94.00
7192;DHT22;3637;51.494;11.958;2022-09-09T08:43:43;19.50;93.50
7192;DHT22;3637;51.494;11.958;2022-09-09T08:46:53;19.50;93.70
7192;DHT22;3637;51.494;11.958;2022-09-09T08:50:13;19.60;94.00
7192;DHT22;3637;51.494;11.958;2022-09-09T08:53:19;19.60;93.70
7192;DHT22;3637;51.494;11.958;2022-09-09T08:56:24;19.70;93.30
7192;DHT22;3637;51.494;11.958;2022-09-09T08:59:26;19.70;92.80
7192;DHT22;3637;51.494;11.958;2022-09-09T09:02:35;19.80;92.70
7192;DHT22;3637;51.494;11.958;2022-09-09T09:05:47;19.90;92.90
7192;DHT22;3637;51.494;11.958;2022-09-09T09:08:58;19.90;92.70
7192;DHT22;3637;51.494;11.958;2022-09-09T09:12:02;20.00;92.70
7192;DHT22;3637;51.494;11.958;2022-09-09T09:15:16;20.10;92.90
7192;DHT22;3637;51.494;11.958;2022-09-09T09:18:19;20.10;92.60
7192;DHT22;3637;51.494;11.958;2022-09-09T09:21:29;20.10;92.50
7192;DHT22;3637;51.494;11.958;2022-09-09T09:24:41;20.20;92.70
7192;DHT22;3637;51.494;11.958;2022-09-09T09:27:52;20.30;92.50
7192;DHT22;3637;51.494;11.958;2022-09-09T09:31:03;20.40;92.70
7192;DHT22;3637;51.494;11.958;2022-09-09T09:34:08;20.50;92.50
7192;DHT22;3637;51.494;11.958;2022-09-09T09:37:16;20.50;92.50
7192;DHT22;3637;51.494;11.958;2022-09-09T09:40:21;20.40;92.70
7192;DHT22;3637;51.494;11.958;2022-09-09T09:43:26;20.60;92.60
7192;DHT22;3637;51.494;11.958;2022-09-09T09:46:29;20.50;92.50
7192;DHT22;3637;51.494;11.958;2022-09-09T09:49:31;20.50;92.50
7192;DHT22;3637;51.494;11.958;2022-09-09T09:52:35;20.40;92.70
7192;DHT22;3637;51.494;11.958;2022-09-09T09:55:48;20.50;92.50
7192;DHT22;3637;51.494;11.958;2022-09-09T09:58:52;20.60;92.70
7192;DHT22;3637;51.494;11.958;2022-09-09T10:02:11;20.60;93.00
7192;DHT22;3637;51.494;11.958;2022-09-09T10:05:16;20.80;92.60
7192;DHT22;3637;51.494;11.958;2022-09-09T10:08:23;20.90;92.10
7192;DHT22;3637;51.494;11.958;2022-09-09T10:11:34;21.00;91.70
7192;DHT22;3637;51.494;11.958;2022-09-09T10:14:41;21.00;91.00
7192;DHT22;3637;51.494;11.958;2022-09-09T10:17:54;21.10;91.00
7192;DHT22;3637;51.494;11.958;2022-09-09T10:21:03;21.20;91.00
7192;DHT22;3637;51.494;11.958;2022-09-09T10:27:42;21.40;90.00
7192;DHT22;3637;51.494;11.958;2022-09-09T10:30:56;21.60;88.80
7192;DHT22;3637;51.494;11.958;2022-09-09T10:34:09;21.70;88.90
7192;DHT22;3637;51.494;11.958;2022-09-09T10:37:22;21.60;87.90
7192;DHT22;3637;51.494;11.958;2022-09-09T10:40:46;21.50;86.90
7192;DHT22;3637;51.494;11.958;2022-09-09T10:44:10;21.40;87.70
7192;DHT22;3637;51.494;11.958;2022-09-09T10:47:26;21.30;87.10
7192;DHT22;3637;51.494;11.958;2022-09-09T10:50:53;21.20;88.70
7192;DHT22;3637;51.494;11.958;2022-09-09T10:54:13;21.20;90.90
7192;DHT22;3637;51.494;11.958;2022-09-09T10:57:27;21.10;92.20
7192;DHT22;3637;51.494;11.958;2022-09-09T11:00:37;21.00;92.90
7192;DHT22;3637;51.494;11.958;2022-09-09T11:03:43;20.80;94.60
7192;DHT22;3637;51.494;11.958;2022-09-09T11:06:52;20.70;95.00
7192;DHT22;3637;51.494;11.958;2022-09-09T11:09:58;20.60;95.80
7192;DHT22;3637;51.494;11.958;2022-09-09T11:13:05;20.60;96.00
7192;DHT22;3637;51.494;11.958;2022-09-09T11:16:20;20.80;95.20
7192;DHT22;3637;51.494;11.958;2022-09-09T11:19:28;20.90;91.50
7192;DHT22;3637;51.494;11.958;2022-09-09T11:22:34;21.00;90.70
7192;DHT22;3637;51.494;11.958;2022-09-09T11:25:38;21.00;87.50
7192;DHT22;3637;51.494;11.958;2022-09-09T11:28:55;21.10;87.90
7192;DHT22;3637;51.494;11.958;2022-09-09T11:32:09;21.20;89.50
7192;DHT22;3637;51.494;11.958;2022-09-09T11:35:26;21.30;90.00
7192;DHT22;3637;51.494;11.958;2022-09-09T11:38:38;21.40;90.00
7192;DHT22;3637;51.494;11.958;2022-09-09T11:41:42;21.60;88.50
7192;DHT22;3637;51.494;11.958;2022-09-09T11:44:46;21.70;87.20
7192;DHT22;3637;51.494;11.958;2022-09-09T11:47:52;21.90;86.80
7192;DHT22;3637;51.494;11.958;2022-09-09T11:51:01;22.00;83.60
7192;DHT22;3637;51.494;11.958;2022-09-09T11:54:29;22.10;84.70
7192;DHT22;3637;51.494;11.958;2022-09-09T11:57:35;22.20;85.00
7192;DHT22;3637;51.494;11.958;2022-09-09T12:00:40;22.30;84.60
7192;DHT22;3637;51.494;11.958;2022-09-09T12:03:46;22.30;83.90
7192;DHT22;3637;51.494;11.958;2022-09-09T12:06:51;22.30;84.60
7192;DHT22;3637;51.494;11.958;2022-09-09T12:10:19;22.20;84.10
7192;DHT22;3637;51.494;11.958;2022-09-09T12:13:24;22.20;84.00
7192;DHT22;3637;51.494;11.958;2022-09-09T12:16:33;22.10;85.00
7192;DHT22;3637;51.494;11.958;2022-09-09T12:19:35;22.20;84.40
7192;DHT22;3637;51.494;11.958;2022-09-09T12:22:50;22.20;85.00
7192;DHT22;3637;51.494;11.958;2022-09-09T12:26:19;22.20;81.10
7192;DHT22;3637;51.494;11.958;2022-09-09T12:29:28;22.30;80.70
7192;DHT22;3637;51.494;11.958;2022-09-09T12:32:34;22.10;79.00
7192;DHT22;3637;51.494;11.958;2022-09-09T12:35:36;22.10;79.80
7192;DHT22;3637;51.494;11.958;2022-09-09T12:38:41;22.10;80.70
7192;DHT22;3637;51.494;11.958;2022-09-09T12:41:51;22.00;82.40
7192;DHT22;3637;51.494;11.958;2022-09-09T12:44:58;22.00;80.60
7192;DHT22;3637;51.494;11.958;2022-09-09T12:48:05;22.00;78.40
7192;DHT22;3637;51.494;11.958;2022-09-09T12:51:24;22.00;78.30
7192;DHT22;3637;51.494;11.958;2022-09-09T12:54:26;21.90;78.20
7192;DHT22;3637;51.494;11.958;2022-09-09T12:57:33;22.00;78.20
7192;DHT22;3637;51.494;11.958;2022-09-09T13:00:35;21.90;78.10
7192;DHT22;3637;51.494;11.958;2022-09-09T13:03:43;22.00;78.50
7192;DHT22;3637;51.494;11.958;2022-09-09T13:06:47;22.00;79.40
7192;DHT22;3637;51.494;11.958;2022-09-09T13:09:50;22.00;79.60
7192;DHT22;3637;51.494;11.958;2022-09-09T13:12:52;22.10;78.60
7192;DHT22;3637;51.494;11.958;2022-09-09T13:15:56;22.10;79.00
7192;DHT22;3637;51.494;11.958;2022-09-09T13:19:01;22.10;77.70
7192;DHT22;3637;51.494;11.958;2022-09-09T13:26:02;22.20;75.00
7192;DHT22;3637;51.494;11.958;2022-09-09T13:29:14;22.30;75.90
7192;DHT22;3637;51.494;11.958;2022-09-09T13:32:19;22.30;75.50
7192;DHT22;3637;51.494;11.958;2022-09-09T13:35:24;22.30;75.50
7192;DHT22;3637;51.494;11.958;2022-09-09T13:38:28;22.30;76.30
7192;DHT22;3637;51.494;11.958;2022-09-09T13:41:33;22.30;76.40
7192;DHT22;3637;51.494;11.958;2022-09-09T13:44:38;22.30;76.00
7192;DHT22;3637;51.494;11.958;2022-09-09T13:47:42;22.20;76.90
7192;DHT22;3637;51.494;11.958;2022-09-09T13:50:54;22.10;76.80
7192;DHT22;3637;51.494;11.958;2022-09-09T13:53:56;22.10;77.60
7192;DHT22;3637;51.494;11.958;2022-09-09T13:56:58;22.00;75.20
7192;DHT22;3637;51.494;11.958;2022-09-09T14:00:02;22.00;75.80
7192;DHT22;3637;51.494;11.958;2022-09-09T14:03:04;22.00;75.30
7192;DHT22;3637;51.494;11.958;2022-09-09T14:06:09;22.00;75.90
7192;DHT22;3637;51.494;11.958;2022-09-09T14:09:13;22.10;76.70
7192;DHT22;3637;51.494;11.958;2022-09-09T14:12:18;22.20;77.60
7192;DHT22;3637;51.494;11.958;2022-09-09T14:15:20;22.20;77.80
7192;DHT22;3637;51.494;11.958;2022-09-09T14:18:22;22.40;77.70
7192;DHT22;3637;51.494;11.958;2022-09-09T14:21:27;22.40;75.70
7192;DHT22;3637;51.494;11.958;2022-09-09T14:24:29;22.40;76.00
7192;DHT22;3637;51.494;11.958;2022-09-09T14:27:31;22.40;74.10
7192;DHT22;3637;51.494;11.958;2022-09-09T14:30:33;22.50;73.30
7192;DHT22;3637;51.494;11.958;2022-09-09T14:33:35;22.40;73.30
7192;DHT22;3637;51.494;11.958;2022-09-09T14:36:39;22.50;68.70
7192;DHT22;3637;51.494;11.958;2022-09-09T14:39:41;22.50;68.30
7192;DHT22;3637;51.494;11.958;2022-09-09T14:42:44;22.60;67.00
7192;DHT22;3637;51.494;11.958;2022-09-09T14:45:46;22.60;65.30
7192;DHT22;3637;51.494;11.958;2022-09-09T14:48:49;22.60;65.30
7192;DHT22;3637;51.494;11.958;2022-09-09T14:51:52;22.60;65.50
7192;DHT22;3637;51.494;11.958;2022-09-09T14:54:54;22.60;65.90
7192;DHT22;3637;51.494;11.958;2022-09-09T14:57:56;22.60;66.90
7192;DHT22;3637;51.494;11.958;2022-09-09T15:01:03;22.60;66.90
7192;DHT22;3637;51.494;11.958;2022-09-09T15:04:05;22.60;65.50
7192;DHT22;3637;51.494;11.958;2022-09-09T15:07:09;22.60;65.10
7192;DHT22;3637;51.494;11.958;2022-09-09T15:10:11;22.60;64.70
7192;DHT22;3637;51.494;11.958;2022-09-09T15:13:15;22.60;64.80
7192;DHT22;3637;51.494;11.958;2022-09-09T15:16:19;22.60;65.20
7192;DHT22;3637;51.494;11.958;2022-09-09T15:19:21;22.60;64.40
7192;DHT22;3637;51.494;11.958;2022-09-09T15:22:24;22.50;64.90
7192;DHT22;3637;51.494;11.958;2022-09-09T15:25:26;22.60;65.60
7192;DHT22;3637;51.494;11.958;2022-09-09T15:28:29;22.60;66.00
7192;DHT22;3637;51.494;11.958;2022-09-09T15:31:32;22.60;67.60
7192;DHT22;3637;51.494;11.958;2022-09-09T15:34:34;22.60;68.60
7192;DHT22;3637;51.494;11.958;2022-09-09T15:37:37;22.60;68.90
7192;DHT22;3637;51.494;11.958;2022-09-09T15:40:39;22.70;68.50
7192;DHT22;3637;51.494;11.958;2022-09-09T15:43:43;22.70;68.70
7192;DHT22;3637;51.494;11.958;2022-09-09T15:46:49;22.70;69.00
7192;DHT22;3637;51.494;11.958;2022-09-09T15:49:51;22.70;68.90
7192;DHT22;3637;51.494;11.958;2022-09-09T15:52:54;22.70;69.70
7192;DHT22;3637;51.494;11.958;2022-09-09T15:55:56;22.70;69.70
7192;DHT22;3637;51.494;11.958;2022-09-09T15:58:59;22.70;69.70
7192;DHT22;3637;51.494;11.958;2022-09-09T16:02:02;22.70;70.00
7192;DHT22;3637;51.494;11.958;2022-09-09T16:05:06;22.70;68.80
7192;DHT22;3637;51.494;11.958;2022-09-09T16:08:09;22.60;68.00
7192;DHT22;3637;51.494;11.958;2022-09-09T16:11:13;22.60;68.00
7192;DHT22;3637;51.494;11.958;2022-09-09T16:14:16;22.50;69.50
7192;DHT22;3637;51.494;11.958;2022-09-09T16:17:18;22.40;69.50
7192;DHT22;3637;51.494;11.958;2022-09-09T16:20:20;22.30;70.40
7192;DHT22;3637;51.494;11.958;2022-09-09T16:23:24;22.30;71.70
7192;DHT22;3637;51.494;11.958;2022-09-09T16:26:26;22.30;71.80
7192;DHT22;3637;51.494;11.958;2022-09-09T16:29:28;22.20;70.60
7192;DHT22;3637;51.494;11.958;2022-09-09T16:32:30;22.10;70.50
7192;DHT22;3637;51.494;11.958;2022-09-09T16:35:36;22.10;69.10
7192;DHT22;3637;51.494;11.958;2022-09-09T16:38:40;22.00;69.70
7192;DHT22;3637;51.494;11.958;2022-09-09T16:41:47;21.80;69.60
7192;DHT22;3637;51.494;11.958;2022-09-09T16:44:49;21.90;70.30
7192;DHT22;3637;51.494;11.958;2022-09-09T16:47:51;21.80;70.60
7192;DHT22;3637;51.494;11.958;2022-09-09T16:51:01;21.80;70.00
7192;DHT22;3637;51.494;11.958;2022-09-09T16:54:06;21.80;70.40
7192;DHT22;3637;51.494;11.958;2022-09-09T16:57:10;21.70;71.20
7192;DHT22;3637;51.494;11.958;2022-09-09T17:00:12;21.70;70.90
7192;DHT22;3637;51.494;11.958;2022-09-09T17:03:14;21.60;71.30
7192;DHT22;3637;51.494;11.958;2022-09-09T17:06:16;21.50;72.20
7192;DHT22;3637;51.494;11.958;2022-09-09T17:09:20;21.50;72.50
7192;DHT22;3637;51.494;11.958;2022-09-09T17:12:23;21.50;72.00
7192;DHT22;3637;51.494;11.958;2022-09-09T17:15:25;21.50;72.30
7192;DHT22;3637;51.494;11.958;2022-09-09T17:18:27;21.30;72.60
7192;DHT22;3637;51.494;11.958;2022-09-09T17:21:30;21.30;73.10
7192;DHT22;3637;51.494;11.958;2022-09-09T17:24:34;21.20;72.90
7192;DHT22;3637;51.494;11.958;2022-09-09T17:27:38;21.20;73.30
7192;DHT22;3637;51.494;11.958;2022-09-09T17:30:40;21.10;73.90
7192;DHT22;3637;51.494;11.958;2022-09-09T17:33:44;21.00;73.50
7192;DHT22;3637;51.494;11.958;2022-09-09T17:36:46;20.90;74.20
7192;DHT22;3637;51.494;11.958;2022-09-09T17:39:49;21.00;74.90
7192;DHT22;3637;51.494;11.958;2022-09-09T17:42:51;20.80;74.40
7192;DHT22;3637;51.494;11.958;2022-09-09T17:45:53;20.80;74.50
7192;DHT22;3637;51.494;11.958;2022-09-09T17:48:57;20.80;75.10
7192;DHT22;3637;51.494;11.958;2022-09-09T17:51:59;20.70;75.30
7192;DHT22;3637;51.494;11.958;2022-09-09T17:55:03;20.60;76.60
7192;DHT22;3637;51.494;11.958;2022-09-09T17:58:05;20.60;76.80
7192;DHT22;3637;51.494;11.958;2022-09-09T18:01:09;20.60;75.50
7192;DHT22;3637;51.494;11.958;2022-09-09T18:04:13;20.50;75.60
7192;DHT22;3637;51.494;11.958;2022-09-09T18:07:15;20.40;76.60
7192;DHT22;3637;51.494;11.958;2022-09-09T18:10:19;20.40;77.40
7192;DHT22;3637;51.494;11.958;2022-09-09T18:13:21;20.30;78.20
7192;DHT22;3637;51.494;11.958;2022-09-09T18:16:24;20.30;78.30
7192;DHT22;3637;51.494;11.958;2022-09-09T18:19:29;20.20;79.40
7192;DHT22;3637;51.494;11.958;2022-09-09T18:22:32;20.20;80.10
7192;DHT22;3637;51.494;11.958;2022-09-09T18:25:38;20.10;79.80
7192;DHT22;3637;51.494;11.958;2022-09-09T18:28:41;20.00;80.70
7192;DHT22;3637;51.494;11.958;2022-09-09T18:31:47;19.90;80.20
7192;DHT22;3637;51.494;11.958;2022-09-09T18:34:49;19.90;79.80
7192;DHT22;3637;51.494;11.958;2022-09-09T18:37:51;19.80;80.10
7192;DHT22;3637;51.494;11.958;2022-09-09T18:40:56;19.80;80.20
7192;DHT22;3637;51.494;11.958;2022-09-09T18:44:00;19.70;81.60
7192;DHT22;3637;51.494;11.958;2022-09-09T18:47:02;19.60;82.10
7192;DHT22;3637;51.494;11.958;2022-09-09T18:50:05;19.60;82.10
7192;DHT22;3637;51.494;11.958;2022-09-09T18:53:07;19.50;82.40
7192;DHT22;3637;51.494;11.958;2022-09-09T18:56:12;19.30;82.70
7192;DHT22;3637;51.494;11.958;2022-09-09T18:59:16;19.40;83.20
7192;DHT22;3637;51.494;11.958;2022-09-09T19:02:19;19.30;83.80
7192;DHT22;3637;51.494;11.958;2022-09-09T19:05:22;19.30;84.40
7192;DHT22;3637;51.494;11.958;2022-09-09T19:08:24;19.20;85.20
7192;DHT22;3637;51.494;11.958;2022-09-09T19:11:27;19.20;85.00
7192;DHT22;3637;51.494;11.958;2022-09-09T19:14:29;19.10;85.40
7192;DHT22;3637;51.494;11.958;2022-09-09T19:17:31;19.20;85.70
7192;DHT22;3637;51.494;11.958;2022-09-09T19:20:36;19.10;85.50
7192;DHT22;3637;51.494;11.958;2022-09-09T19:23:38;19.10;85.40
7192;DHT22;3637;51.494;11.958;2022-09-09T19:26:42;19.10;85.20
7192;DHT22;3637;51.494;11.958;2022-09-09T19:29:48;19.10;84.70
7192;DHT22;3637;51.494;11.958;2022-09-09T19:32:51;19.00;85.10
7192;DHT22;3637;51.494;11.958;2022-09-09T19:35:56;19.10;84.40
7192;DHT22;3637;51.494;11.958;2022-09-09T19:38:58;19.00;84.30
7192;DHT22;3637;51.494;11.958;2022-09-09T19:42:02;19.00;84.70
7192;DHT22;3637;51.494;11.958;2022-09-09T19:45:05;18.90;84.80
7192;DHT22;3637;51.494;11.958;2022-09-09T19:48:08;18.90;85.20
7192;DHT22;3637;51.494;11.958;2022-09-09T19:51:12;18.80;85.50
7192;DHT22;3637;51.494;11.958;2022-09-09T19:54:14;18.80;85.50
7192;DHT22;3637;51.494;11.958;2022-09-09T19:57:17;18.80;85.50